createdAt,value
2022-10-11T00:03:31.178Z,66.63
2022-10-11T00:08:33.379Z,66.49
2022-10-11T00:13:35.767Z,66.21
2022-10-11T00:18:38.420Z,66.08
2022-10-11T00:23:41.129Z,66.08
2022-10-11T00:28:43.090Z,66.12
2022-10-11T00:33:44.924Z,66.03
2022-10-11T00:38:46.861Z,66.02
2022-10-11T00:43:48.654Z,66.14
2022-10-11T00:49:28.951Z,66.22
2022-10-11T00:54:36.135Z,66.26
2022-10-11T00:59:43.202Z,66.27
2022-10-11T01:04:45.202Z,66.28
2022-10-11T01:09:47.199Z,66.30
2022-10-11T01:15:16.451Z,66.30
2022-10-11T01:20:32.025Z,66.24
2022-10-11T01:25:34.344Z,66.29
2022-10-11T01:30:38.004Z,66.34
2022-10-11T01:36:06.976Z,66.34
2022-10-11T01:41:14.581Z,66.29
2022-10-11T01:46:16.974Z,66.26
2022-10-11T01:51:25.221Z,66.23
2022-10-11T01:56:35.795Z,66.17
2022-10-11T02:01:56.647Z,66.13
2022-10-11T02:07:24.969Z,66.13
2022-10-11T02:12:44.668Z,66.14
2022-10-11T02:17:52.941Z,66.18
2022-10-11T02:23:02.507Z,66.22
2022-10-11T02:28:24.149Z,66.28
2022-10-11T02:34:00.329Z,66.30
2022-10-11T02:39:10.142Z,66.35
2022-10-11T02:44:32.299Z,66.46
2022-10-11T02:49:35.600Z,66.67
2022-10-11T02:54:37.339Z,66.87
2022-10-11T02:59:39.047Z,67.27
2022-10-11T03:04:40.885Z,67.50
2022-10-11T03:09:49.104Z,67.76
2022-10-11T03:15:00.649Z,68.03
2022-10-11T03:20:02.532Z,68.10
2022-10-11T03:25:13.999Z,68.14
2022-10-11T03:30:18.366Z,68.21
2022-10-11T03:35:20.554Z,68.21
2022-10-11T03:40:22.425Z,68.29
2022-10-11T03:45:24.166Z,68.37
2022-10-11T03:50:26.298Z,68.51
2022-10-11T03:55:28.014Z,68.55
2022-10-11T04:00:29.749Z,68.50
2022-10-11T04:05:31.508Z,68.47
2022-10-11T04:10:33.439Z,68.48
2022-10-11T04:15:36.868Z,68.86
2022-10-11T04:20:38.734Z,69.47
2022-10-11T04:25:42.447Z,70.51
2022-10-11T04:30:44.197Z,70.95
2022-10-11T04:35:46.153Z,71.92
2022-10-11T04:40:47.929Z,72.71
2022-10-11T04:45:54.592Z,73.03
2022-10-11T04:50:57.321Z,73.49
2022-10-11T04:56:11.789Z,72.69
2022-10-11T05:01:13.968Z,73.62
2022-10-11T05:06:15.797Z,74.10
2022-10-11T05:11:18.301Z,74.87
2022-10-11T05:16:19.957Z,75.18
2022-10-11T05:21:25.045Z,75.38
2022-10-11T05:26:28.256Z,76.00
2022-10-11T05:31:47.048Z,76.62
2022-10-11T05:36:57.576Z,77.65
2022-10-11T05:41:59.341Z,78.67
2022-10-11T05:47:01.254Z,79.32
2022-10-11T05:52:03.015Z,79.49
2022-10-11T05:57:04.830Z,79.77
2022-10-11T06:02:07.590Z,80.12
2022-10-11T06:07:09.354Z,79.97
2022-10-11T06:12:11.560Z,79.66
2022-10-11T06:17:13.507Z,79.73
2022-10-11T06:22:15.547Z,79.74
2022-10-11T06:27:18.346Z,79.62
2022-10-11T06:32:20.388Z,79.68
2022-10-11T06:37:22.137Z,79.61
2022-10-11T06:42:24.113Z,79.36
2022-10-11T06:47:25.847Z,79.04
2022-10-11T06:52:27.593Z,78.90
2022-10-11T06:57:29.569Z,78.78
2022-10-11T07:02:31.949Z,78.63
2022-10-11T07:07:34.112Z,78.58
2022-10-11T07:12:36.065Z,78.71
2022-10-11T07:17:38.091Z,78.82
2022-10-11T07:22:39.899Z,78.63
2022-10-11T07:27:41.757Z,78.08
2022-10-11T07:32:43.571Z,77.67
2022-10-11T07:37:45.243Z,76.90
2022-10-11T07:42:47.023Z,76.72
2022-10-11T07:47:48.994Z,76.80
2022-10-11T07:52:51.225Z,76.74
2022-10-11T07:57:54.905Z,76.81
2022-10-11T08:02:56.622Z,77.04
2022-10-11T08:07:58.518Z,77.87
2022-10-11T08:13:04.220Z,78.18
2022-10-11T08:18:06.407Z,78.36
2022-10-11T08:23:09.616Z,78.32
2022-10-11T08:28:17.067Z,78.24
2022-10-11T08:33:20.387Z,78.09
2022-10-11T08:38:22.619Z,77.99
2022-10-11T08:43:58.191Z,78.21
2022-10-11T08:49:01.618Z,78.61
2022-10-11T08:54:33.929Z,78.62
2022-10-11T08:59:46.478Z,78.84
2022-10-11T09:04:52.367Z,78.88
2022-10-11T09:10:25.517Z,78.29
2022-10-11T09:15:39.217Z,76.88
2022-10-11T09:20:50.668Z,75.44
2022-10-11T09:26:03.516Z,75.01
2022-10-11T09:31:10.286Z,74.17
2022-10-11T09:36:44.627Z,73.75
2022-10-11T09:41:56.941Z,73.95
2022-10-11T09:46:58.832Z,74.81
2022-10-11T09:52:27.940Z,75.90
2022-10-11T09:57:33.246Z,76.55
2022-10-11T10:02:47.556Z,76.60
2022-10-11T10:08:10.847Z,75.59
2022-10-11T10:13:21.775Z,73.92
2022-10-11T10:18:36.342Z,73.37
2022-10-11T10:23:38.206Z,72.39
2022-10-11T10:29:05.764Z,71.68
2022-10-11T10:34:15.874Z,71.63
2022-10-11T10:39:39.726Z,72.62
2022-10-11T10:44:43.146Z,71.94
2022-10-11T10:49:56.426Z,70.06
2022-10-11T10:55:25.377Z,70.77
2022-10-11T11:00:37.055Z,70.82
2022-10-11T11:05:43.777Z,68.06
2022-10-11T11:10:55.532Z,63.93
2022-10-11T11:16:12.894Z,62.97
2022-10-11T11:21:40.543Z,64.16
2022-10-11T11:27:06.637Z,63.47
2022-10-11T11:32:45.445Z,60.74
2022-10-11T11:37:54.089Z,59.37
2022-10-11T11:43:06.815Z,60.12
2022-10-11T11:48:19.065Z,59.00
2022-10-11T11:53:44.939Z,58.40
2022-10-11T11:58:53.507Z,58.06
2022-10-11T12:03:59.586Z,59.78
2022-10-11T12:09:27.824Z,57.35
2022-10-11T12:14:41.015Z,55.77
2022-10-11T12:20:01.302Z,52.73
2022-10-11T12:25:09.422Z,52.45
2022-10-11T12:30:42.673Z,52.76
2022-10-11T12:35:56.494Z,52.32
2022-10-11T12:41:18.488Z,52.24
2022-10-11T12:46:31.632Z,50.72
2022-10-11T12:51:45.872Z,50.69
2022-10-11T12:57:12.370Z,49.83
2022-10-11T13:02:29.207Z,50.25
2022-10-11T13:07:31.742Z,51.26
2022-10-11T13:12:39.482Z,50.62
2022-10-11T13:17:42.050Z,51.88
2022-10-11T13:22:50.141Z,50.15
2022-10-11T13:27:54.969Z,49.08
2022-10-11T13:32:58.671Z,48.98
2022-10-11T13:38:02.536Z,48.93
2022-10-11T13:43:05.893Z,50.08
2022-10-11T13:48:15.420Z,50.88
2022-10-11T13:53:17.299Z,49.28
2022-10-11T13:58:40.586Z,48.96
2022-10-11T14:03:47.198Z,50.15
2022-10-11T14:08:55.770Z,49.83
2022-10-11T14:13:57.496Z,50.33
2022-10-11T14:18:59.097Z,50.73
2022-10-11T14:24:12.713Z,50.14
2022-10-11T14:29:31.903Z,50.70
2022-10-11T14:34:34.884Z,51.64
2022-10-11T14:39:36.943Z,51.79
2022-10-11T14:44:38.797Z,52.31
2022-10-11T14:49:40.745Z,52.06
2022-10-11T14:54:42.695Z,52.36
2022-10-11T14:59:44.873Z,52.89
2022-10-11T15:04:53.713Z,52.65
2022-10-11T15:09:55.505Z,52.27
2022-10-11T15:15:00.899Z,52.65
2022-10-11T15:20:02.949Z,51.91
2022-10-11T15:25:05.855Z,52.00
2022-10-11T15:30:16.029Z,51.92
2022-10-11T15:35:18.706Z,53.39
2022-10-11T15:40:35.808Z,54.33
2022-10-11T15:45:37.935Z,54.91
2022-10-11T15:50:41.647Z,55.26
2022-10-11T15:55:54.278Z,55.54
2022-10-11T16:01:00.372Z,55.80
2022-10-11T16:06:23.062Z,56.34
2022-10-11T16:11:35.441Z,57.23
2022-10-11T16:16:37.732Z,58.65
2022-10-11T16:21:39.503Z,59.17
2022-10-11T16:26:41.951Z,60.26
2022-10-11T16:31:43.679Z,59.85
2022-10-11T16:36:45.921Z,60.81
2022-10-11T16:41:47.937Z,62.38
2022-10-11T16:46:49.759Z,64.31
2022-10-11T16:51:53.744Z,63.85
2022-10-11T16:56:55.532Z,65.55
2022-10-11T17:02:04.088Z,65.83
2022-10-11T17:07:22.331Z,65.72
2022-10-11T17:12:24.902Z,66.71
2022-10-11T17:17:28.080Z,67.57
2022-10-11T17:22:29.823Z,67.33
2022-10-11T17:27:31.759Z,67.76
2022-10-11T17:32:33.453Z,68.58
2022-10-11T17:37:38.162Z,69.89
2022-10-11T17:42:40.145Z,70.59
2022-10-11T17:47:42.192Z,70.74
2022-10-11T17:52:52.190Z,70.08
2022-10-11T17:58:01.791Z,70.56
2022-10-11T18:03:06.973Z,71.16
2022-10-11T18:08:09.750Z,71.59
2022-10-11T18:13:15.208Z,71.49
2022-10-11T18:18:18.705Z,71.55
2022-10-11T18:23:20.569Z,71.44
2022-10-11T18:28:22.534Z,71.06
2022-10-11T18:33:26.017Z,71.23
2022-10-11T18:38:27.822Z,71.57
2022-10-11T18:43:29.722Z,71.73
2022-10-11T18:48:32.709Z,71.77
2022-10-11T18:53:35.725Z,71.97
2022-10-11T18:58:39.622Z,72.13
2022-10-11T19:03:45.603Z,72.70
2022-10-11T19:08:50.352Z,72.84
2022-10-11T19:14:02.957Z,73.10
2022-10-11T19:19:06.492Z,72.71
2022-10-11T19:24:09.392Z,72.58
2022-10-11T19:29:18.708Z,73.18
2022-10-11T19:34:21.743Z,73.79
2022-10-11T19:39:24.646Z,73.98
2022-10-11T19:44:27.163Z,74.00
2022-10-11T19:49:29.232Z,73.67
2022-10-11T19:54:31.948Z,74.26
2022-10-11T19:59:33.943Z,74.88
2022-10-11T20:04:52.990Z,75.74
2022-10-11T20:09:55.563Z,76.25
2022-10-11T20:14:57.374Z,76.23
2022-10-11T20:19:59.376Z,76.68
2022-10-11T20:25:01.084Z,77.27
2022-10-11T20:30:03.414Z,77.26
2022-10-11T20:35:06.314Z,76.78
2022-10-11T20:40:09.172Z,76.49
2022-10-11T20:45:11.198Z,76.01
2022-10-11T20:50:13.898Z,76.48
2022-10-11T20:55:29.903Z,76.93
2022-10-11T21:00:48.018Z,77.62
2022-10-11T21:06:03.561Z,77.76
2022-10-11T21:11:07.385Z,77.52
2022-10-11T21:16:13.474Z,76.90
2022-10-11T21:21:16.394Z,76.90
2022-10-11T21:26:18.514Z,76.55
2022-10-11T21:31:22.935Z,76.90
2022-10-11T21:36:27.417Z,77.23
2022-10-11T21:41:30.097Z,76.72
2022-10-11T21:47:01.320Z,76.56
2022-10-11T21:51:54.302Z,76.78
2022-10-11T21:57:02.473Z,77.29
2022-10-11T22:02:04.436Z,77.59
2022-10-11T22:07:06.377Z,78.02
2022-10-11T22:12:08.123Z,77.53
2022-10-11T22:17:10.020Z,77.10
2022-10-11T22:22:11.755Z,76.88
2022-10-11T22:27:13.584Z,77.52
2022-10-11T22:32:15.580Z,77.38
2022-10-11T22:37:17.274Z,77.74
2022-10-11T22:42:18.959Z,77.50
2022-10-11T22:47:20.690Z,77.78
2022-10-11T22:52:22.422Z,78.42
2022-10-11T22:57:24.665Z,79.28
2022-10-11T23:02:26.523Z,79.76
2022-10-11T23:07:28.218Z,78.87
2022-10-11T23:12:35.729Z,78.39
2022-10-11T23:17:38.184Z,78.77
2022-10-11T23:22:40.238Z,78.62
2022-10-11T23:27:42.160Z,78.04
2022-10-11T23:32:44.183Z,77.57
2022-10-11T23:37:45.854Z,78.13
2022-10-11T23:42:47.604Z,78.41
2022-10-11T23:47:50.128Z,78.88
2022-10-11T23:52:52.262Z,78.55
2022-10-11T23:57:54.330Z,79.08
